PABI/DJN METAR and TAF weather

Enter ICAO airport designator
Station Type Date Time Source
PABI METAR 2022/11/30 09:53 UTC NOAA

PABI 300953Z AUTO 00000KT FEW120 M24/M27 A3049 RMK AO2 SLP400 T12391272 TSNO


Station Type Date Time Source
PABI Decoded METAR 2022/11/30 09:53 UTC NOAA

ALLEN ARMY AIRFIELD, AK, United States (PABI) 64-00N 145-43W 391M
Nov 30, 2022 - 04:53 AM EST / 2022.11.30 0953 UTC
Wind: Calm:0
Sky conditions: mostly clear
Temperature: -11.0 F (-23.9 C)
Dew Point: -17.0 F (-27.2 C)
Relative Humidity: 74%
Pressure (altimeter): 30.49 in. Hg (1032 hPa)
ob: PABI 300953Z AUTO 00000KT FEW120 M24/M27 A3049 RMK AO2 SLP400 T12391272 TSNO
cycle: 10

Station Type Date Time Source
PABI TAF 2022/11/30 06:03 UTC NOAA

TAF PABI 300600Z 3006/0112 VRB06KT 9999 SCT200 QNH2983INS
BECMG 0101/0102 VRB06KT 9999 FEW017 BKN024 OVC035 620306 QNH2967INS
BECMG 0106/0107 30010G15KT 9000 -SN BKN009 620098 QNH2970INS
BECMG 0109/0110 30010G15KT 9000 -SN BKN010 620107 QNH2983INS TXM10/0104Z TNM32/3006Z

Example: see airport list